Hauptseite
METAR-TAF:

METAR-TAF

Flughäfen :

Gombe Lawanti International Airport

Gombe, Nigeria

Breite: 10-18-19N, Länge: 10-54-31E, Höhe: 505 m

Beobachtung

Neuester Wetterbericht von vor 12 Stunden und 24 Minuten, um 17:00 UTC
Wind 14 kt aus Süd
Temperatur 29°C
Luftfeuchtigkeit 70%
Luftdruck 1010 hPa
Sichtweite 10 km oder mehr
keine Wolken unter 1500 m und keine Kumulonimbus oder Gewitterwolken

METAR: DNGO 241700Z 19014KT CAVOK 29/23 Q1010

Zeit: 06:24 (05:24 UTC)

Prognose

Neuester Wetterbericht von vor 12 Stunden und 24 Minuten, um 17:00 UTC
Gültige Prognose vom 24 um 18 UTC bis 25 um 24 UTC
Wind 7 kt aus West/Südwest
Sichtweite 10 km oder mehr
Leicht bewölkt in der Höhe von 1200 ft

TAF: DNGO 241700Z 2418/2524 24007KT 9999 FEW012

Wetterbeobachtungen und Prognosen von mehr als 4000 Flughäfen (METAR und TAF Bericht).

Die verfügbaren Stationen werden durch gelbe und rote Markierungen auf der Karte dargestellt.

Führen Sie die Maus auf sie, um den Namen der Station zu sehen.

Darauf klicken, um die Beobachtung von Wetterbeobachtungen und Prognosen zu sehen.

Um die Karte zu ändern : klicken Sie auf den grünen Tasten mit einem schwarzen Kreuz Zum Vergrößern, auf den grünen Button mit einem Gedankenstrich zu verkleinern, oder auf die grünen Pfeile für benachbarte Karten.


METAR-TAF: